createdAt,value
2019-06-26T00:01:52.076Z,22.30
2019-06-26T00:04:20.454Z,22.20
2019-06-26T00:06:48.869Z,22.20
2019-06-26T00:09:17.258Z,22.30
2019-06-26T00:11:45.693Z,22.30
2019-06-26T00:14:14.090Z,22.30
2019-06-26T00:16:42.566Z,22.30
2019-06-26T00:19:10.975Z,22.40
2019-06-26T00:21:39.419Z,22.40
2019-06-26T00:24:07.896Z,22.30
2019-06-26T00:26:36.514Z,22.30
2019-06-26T00:29:04.902Z,22.30
2019-06-26T00:31:33.337Z,22.30
2019-06-26T00:34:01.860Z,22.30
2019-06-26T00:36:30.295Z,22.20
2019-06-26T00:38:58.790Z,22.10
2019-06-26T00:41:27.223Z,22.00
2019-06-26T00:43:55.617Z,22.00
2019-06-26T00:46:24.036Z,21.90
2019-06-26T00:48:52.467Z,21.80
2019-06-26T00:51:20.925Z,21.80
2019-06-26T00:53:49.336Z,21.80
2019-06-26T00:56:18.053Z,21.70
2019-06-26T00:58:46.466Z,21.70
2019-06-26T01:01:14.883Z,21.70
2019-06-26T01:03:43.298Z,21.80
2019-06-26T01:06:13.360Z,21.80
2019-06-26T01:08:41.770Z,21.80
2019-06-26T01:11:10.183Z,21.70
2019-06-26T01:13:38.578Z,21.70
2019-06-26T01:16:07.018Z,21.70
2019-06-26T01:18:35.475Z,21.60
2019-06-26T01:21:03.956Z,21.60
2019-06-26T01:23:32.357Z,21.60
2019-06-26T01:26:00.771Z,21.60
2019-06-26T01:31:10.777Z,21.60
2019-06-26T01:33:39.201Z,21.60
2019-06-26T01:36:07.628Z,21.70
2019-06-26T01:38:36.019Z,21.70
2019-06-26T01:41:04.437Z,21.70
2019-06-26T01:43:32.836Z,21.70
2019-06-26T01:46:01.243Z,21.80
2019-06-26T01:48:29.658Z,21.80
2019-06-26T01:50:58.073Z,21.80
2019-06-26T01:53:26.492Z,21.70
2019-06-26T01:55:54.882Z,21.70
2019-06-26T01:58:23.371Z,21.70
2019-06-26T02:00:51.803Z,21.60
2019-06-26T02:03:20.271Z,21.60
2019-06-26T02:05:48.876Z,21.50
2019-06-26T02:08:17.342Z,21.60
2019-06-26T02:10:45.784Z,21.50
2019-06-26T02:13:14.252Z,21.50
2019-06-26T02:15:42.706Z,21.50
2019-06-26T02:18:27.794Z,21.50
2019-06-26T02:20:56.260Z,21.50
2019-06-26T02:23:24.729Z,21.50
2019-06-26T02:25:53.163Z,21.40
2019-06-26T02:28:21.658Z,21.50
2019-06-26T02:30:50.253Z,21.40
2019-06-26T02:33:18.731Z,21.40
2019-06-26T02:35:47.499Z,21.40
2019-06-26T02:38:15.915Z,21.30
2019-06-26T02:40:44.328Z,21.30
2019-06-26T02:43:13.546Z,21.40
2019-06-26T02:45:42.030Z,21.40
2019-06-26T02:48:10.510Z,21.50
2019-06-26T02:50:38.916Z,21.50
2019-06-26T02:53:07.382Z,21.50
2019-06-26T02:55:35.776Z,21.50
2019-06-26T02:58:04.260Z,21.40
2019-06-26T03:00:32.671Z,21.40
2019-06-26T03:03:01.080Z,21.30
2019-06-26T03:05:29.484Z,21.30
2019-06-26T03:07:57.908Z,21.30
2019-06-26T03:10:26.307Z,21.40
2019-06-26T03:12:54.725Z,21.40
2019-06-26T03:15:23.114Z,21.30
2019-06-26T03:17:55.682Z,21.30
2019-06-26T03:20:24.794Z,21.30
2019-06-26T03:22:53.212Z,21.30
2019-06-26T03:25:21.697Z,21.30
2019-06-26T03:27:50.097Z,21.30
2019-06-26T03:30:18.580Z,21.20
2019-06-26T03:32:47.009Z,21.20
2019-06-26T03:35:15.400Z,21.20
2019-06-26T03:37:43.824Z,21.20
2019-06-26T03:40:12.350Z,21.20
2019-06-26T03:42:40.786Z,21.20
2019-06-26T03:45:24.431Z,21.20
2019-06-26T03:47:40.210Z,21.20
2019-06-26T03:50:09.570Z,21.30
2019-06-26T03:52:37.976Z,21.30
2019-06-26T03:55:07.327Z,21.30
2019-06-26T03:57:35.840Z,21.30
2019-06-26T04:00:06.344Z,21.30
2019-06-26T04:02:34.762Z,21.30
2019-06-26T04:05:03.856Z,21.30
2019-06-26T04:07:32.245Z,21.20
2019-06-26T04:10:00.654Z,21.30
2019-06-26T04:12:29.053Z,21.30
2019-06-26T04:14:57.467Z,21.40
2019-06-26T04:17:25.900Z,21.30
2019-06-26T04:19:54.287Z,21.30
2019-06-26T04:22:22.707Z,21.30
2019-06-26T04:24:51.104Z,21.40
2019-06-26T04:27:19.500Z,21.50
2019-06-26T04:29:47.899Z,21.50
2019-06-26T04:32:16.298Z,21.60
2019-06-26T04:34:44.698Z,21.70
2019-06-26T04:37:13.091Z,21.90
2019-06-26T04:39:41.503Z,22.00
2019-06-26T04:42:09.908Z,22.10
2019-06-26T04:44:38.323Z,22.20
2019-06-26T04:47:06.712Z,22.40
2019-06-26T04:49:35.134Z,22.40
2019-06-26T04:52:03.533Z,22.40
2019-06-26T04:54:31.952Z,22.40
2019-06-26T04:57:00.355Z,22.40
2019-06-26T04:59:28.785Z,22.60
2019-06-26T05:01:57.177Z,22.70
2019-06-26T05:04:25.570Z,22.80
2019-06-26T05:06:53.974Z,22.90
2019-06-26T05:09:22.663Z,23.00
2019-06-26T05:11:51.062Z,23.10
2019-06-26T05:14:19.474Z,23.20
2019-06-26T05:16:47.878Z,23.30
2019-06-26T05:19:16.299Z,23.40
2019-06-26T05:21:45.610Z,23.50
2019-06-26T05:24:14.017Z,23.60
2019-06-26T05:26:42.426Z,23.70
2019-06-26T05:29:10.817Z,23.80
2019-06-26T05:31:39.229Z,23.90
2019-06-26T05:34:10.687Z,23.90
2019-06-26T05:36:37.770Z,24.00
2019-06-26T05:39:07.023Z,24.10
2019-06-26T05:41:35.795Z,24.10
2019-06-26T05:44:05.179Z,24.20
2019-06-26T05:46:33.592Z,24.20
2019-06-26T05:49:02.007Z,24.40
2019-06-26T05:51:30.407Z,24.50
2019-06-26T05:53:58.818Z,24.50
2019-06-26T05:56:27.210Z,24.70
2019-06-26T05:58:55.624Z,24.80
2019-06-26T06:01:24.022Z,24.80
2019-06-26T06:03:52.424Z,24.90
2019-06-26T06:06:20.954Z,25.00
2019-06-26T06:08:49.375Z,25.00
2019-06-26T06:11:17.838Z,25.10
2019-06-26T06:13:46.285Z,25.20
2019-06-26T06:16:14.654Z,25.40
2019-06-26T06:18:43.061Z,25.50
2019-06-26T06:21:11.490Z,25.60
2019-06-26T06:23:39.892Z,25.70
2019-06-26T06:26:08.328Z,25.80
2019-06-26T06:28:36.789Z,25.90
2019-06-26T06:31:05.270Z,26.00
2019-06-26T06:33:33.672Z,26.10
2019-06-26T06:36:02.087Z,26.30
2019-06-26T06:38:30.500Z,26.30
2019-06-26T06:40:58.889Z,26.50
2019-06-26T06:43:27.310Z,26.70
2019-06-26T06:45:55.716Z,26.80
2019-06-26T06:48:25.836Z,26.80
2019-06-26T06:50:54.224Z,26.90
2019-06-26T06:53:22.639Z,27.00
2019-06-26T06:55:51.059Z,27.10
2019-06-26T06:58:19.465Z,27.20
2019-06-26T07:00:47.860Z,27.30
2019-06-26T07:03:16.298Z,27.40
2019-06-26T07:05:44.685Z,27.60
2019-06-26T07:08:13.176Z,27.50
2019-06-26T07:10:41.561Z,27.60
2019-06-26T07:13:09.985Z,27.70
2019-06-26T07:15:38.409Z,27.70
2019-06-26T07:18:06.861Z,27.60
2019-06-26T07:20:35.285Z,27.80
2019-06-26T07:23:03.755Z,27.80
2019-06-26T07:25:32.151Z,27.90
2019-06-26T07:28:01.982Z,27.80
2019-06-26T07:30:30.741Z,28.00
2019-06-26T07:32:59.154Z,28.20
2019-06-26T07:39:08.653Z,28.40
2019-06-26T07:41:37.068Z,28.60
2019-06-26T07:44:05.491Z,28.60
2019-06-26T07:57:00.440Z,29.20
2019-06-26T07:59:28.961Z,29.40
2019-06-26T08:01:57.373Z,29.50
2019-06-26T08:04:25.778Z,29.60
2019-06-26T08:06:54.178Z,29.70
2019-06-26T08:09:22.607Z,29.90
2019-06-26T08:11:51.007Z,30.10
2019-06-26T08:14:19.488Z,30.20
2019-06-26T08:16:47.909Z,30.30
2019-06-26T08:19:16.319Z,30.50
2019-06-26T08:21:46.762Z,30.50
2019-06-26T08:24:14.839Z,30.70
2019-06-26T08:26:43.244Z,30.80
2019-06-26T08:29:11.659Z,30.90
2019-06-26T08:31:40.055Z,31.00
2019-06-26T08:34:08.475Z,31.10
2019-06-26T08:36:36.867Z,31.20
2019-06-26T08:39:07.028Z,31.20
2019-06-26T08:41:35.430Z,31.40
2019-06-26T08:44:04.873Z,31.60
2019-06-26T08:46:33.270Z,31.70
2019-06-26T08:49:01.735Z,31.80
2019-06-26T08:51:30.179Z,31.90
2019-06-26T08:53:58.587Z,32.20
2019-06-26T08:56:26.987Z,32.40
2019-06-26T08:58:55.404Z,32.50
2019-06-26T09:01:23.794Z,32.70
2019-06-26T09:03:52.206Z,32.80
2019-06-26T09:06:20.604Z,32.90
2019-06-26T09:08:49.006Z,32.80
2019-06-26T09:11:17.422Z,32.90
2019-06-26T09:13:45.839Z,33.00
2019-06-26T09:16:14.298Z,33.00
2019-06-26T09:18:42.715Z,32.70
2019-06-26T09:21:11.119Z,32.70
2019-06-26T09:23:39.529Z,32.70
2019-06-26T09:26:07.918Z,33.10
2019-06-26T09:28:36.339Z,33.30
2019-06-26T09:31:04.907Z,33.60
2019-06-26T09:33:33.307Z,33.70
2019-06-26T09:36:01.778Z,33.70
2019-06-26T09:38:30.183Z,33.70
2019-06-26T09:40:58.587Z,33.80
2019-06-26T09:43:26.988Z,34.00
2019-06-26T09:45:55.391Z,34.00
2019-06-26T09:48:23.790Z,33.90
2019-06-26T09:50:52.204Z,34.10
2019-06-26T09:53:20.642Z,34.20
2019-06-26T09:55:49.030Z,34.20
2019-06-26T09:58:17.443Z,34.40
2019-06-26T10:00:45.856Z,34.50
2019-06-26T10:03:14.318Z,34.60
2019-06-26T10:05:42.707Z,34.50
2019-06-26T10:08:11.115Z,34.40
2019-06-26T10:10:39.535Z,34.40
2019-06-26T10:13:07.949Z,34.40
2019-06-26T10:15:36.355Z,34.60
2019-06-26T10:18:04.908Z,34.80
2019-06-26T10:20:33.311Z,35.00
2019-06-26T10:23:01.725Z,35.00
2019-06-26T10:25:30.116Z,35.00
2019-06-26T10:27:58.625Z,35.10
2019-06-26T10:30:27.102Z,35.20
2019-06-26T10:32:55.492Z,35.50
2019-06-26T10:35:23.891Z,35.50
2019-06-26T10:37:52.375Z,35.50
2019-06-26T10:40:21.104Z,35.60
2019-06-26T10:42:49.520Z,35.80
2019-06-26T10:45:18.173Z,35.80
2019-06-26T10:47:46.580Z,35.90
2019-06-26T10:50:15.044Z,35.80
2019-06-26T10:52:43.443Z,35.80
2019-06-26T10:55:12.034Z,35.70
2019-06-26T10:57:40.490Z,35.60
2019-06-26T11:00:10.227Z,35.60
2019-06-26T11:02:38.919Z,36.00
2019-06-26T11:05:08.483Z,36.20
2019-06-26T11:07:36.890Z,36.50
2019-06-26T11:10:07.718Z,36.60
2019-06-26T11:12:36.139Z,36.50
2019-06-26T11:15:06.759Z,36.50
2019-06-26T11:17:35.159Z,36.70
2019-06-26T11:20:08.616Z,36.70
2019-06-26T11:22:37.094Z,36.80
2019-06-26T11:25:07.435Z,36.70
2019-06-26T11:27:35.951Z,36.70
2019-06-26T11:30:09.656Z,36.80
2019-06-26T11:32:38.092Z,36.80
2019-06-26T11:35:07.849Z,36.60
2019-06-26T11:37:36.583Z,36.50
2019-06-26T11:40:08.952Z,36.50
2019-06-26T11:42:37.354Z,36.50
2019-06-26T11:45:07.692Z,36.60
2019-06-26T11:47:36.482Z,36.70
2019-06-26T11:50:07.394Z,36.70
2019-06-26T11:52:35.843Z,36.60
2019-06-26T11:55:06.897Z,36.60
2019-06-26T11:57:35.279Z,36.70
2019-06-26T12:00:09.588Z,36.90
2019-06-26T12:02:37.977Z,37.00
2019-06-26T12:05:07.218Z,37.10
2019-06-26T12:07:35.613Z,37.20
2019-06-26T12:10:07.329Z,37.30
2019-06-26T12:12:35.899Z,37.40
2019-06-26T12:15:05.267Z,37.40
2019-06-26T12:17:33.670Z,37.30
2019-06-26T12:20:17.257Z,37.30
2019-06-26T12:22:32.198Z,37.50
2019-06-26T12:25:00.926Z,37.40
2019-06-26T12:27:29.371Z,37.40
2019-06-26T12:29:57.779Z,37.30
2019-06-26T12:32:26.209Z,37.50
2019-06-26T12:34:54.612Z,37.70
2019-06-26T12:37:36.622Z,37.80
2019-06-26T12:39:53.134Z,37.70
2019-06-26T12:42:21.526Z,37.80
2019-06-26T12:44:49.923Z,38.10
2019-06-26T12:47:18.318Z,37.90
2019-06-26T12:49:46.714Z,37.60
2019-06-26T12:52:17.080Z,37.80
2019-06-26T12:54:45.243Z,37.70
2019-06-26T12:57:13.660Z,37.90
2019-06-26T12:59:56.092Z,37.90
2019-06-26T13:02:12.230Z,38.10
2019-06-26T13:04:44.364Z,38.10
2019-06-26T13:07:10.807Z,38.10
2019-06-26T13:09:39.209Z,38.00
2019-06-26T13:12:07.601Z,37.90
2019-06-26T13:14:36.065Z,37.70
2019-06-26T13:17:04.646Z,37.80
2019-06-26T13:19:33.091Z,37.90
2019-06-26T13:22:01.488Z,38.00
2019-06-26T13:24:29.876Z,38.00
2019-06-26T13:26:58.278Z,37.80
2019-06-26T13:29:26.679Z,37.60
2019-06-26T13:31:55.087Z,37.70
2019-06-26T13:34:23.469Z,37.60
2019-06-26T13:36:51.877Z,37.60
2019-06-26T13:39:20.279Z,37.90
2019-06-26T13:41:48.676Z,38.00
2019-06-26T13:44:17.084Z,38.00
2019-06-26T13:46:45.474Z,37.90
2019-06-26T13:49:16.486Z,38.10
2019-06-26T13:51:44.054Z,38.10
2019-06-26T13:54:12.471Z,38.00
2019-06-26T13:56:40.888Z,37.90
2019-06-26T13:59:09.268Z,37.90
2019-06-26T14:01:37.676Z,37.90
2019-06-26T14:04:06.075Z,37.90
2019-06-26T14:06:34.470Z,37.90
2019-06-26T14:09:02.929Z,37.70
2019-06-26T14:11:31.347Z,37.80
2019-06-26T14:13:59.756Z,37.90
2019-06-26T14:16:29.917Z,37.90
2019-06-26T14:18:58.338Z,38.00
2019-06-26T14:21:26.789Z,38.00
2019-06-26T14:23:55.178Z,38.20
2019-06-26T14:26:23.584Z,38.20
2019-06-26T14:28:54.043Z,38.10
2019-06-26T14:31:22.099Z,38.20
2019-06-26T14:33:50.490Z,38.30
2019-06-26T14:36:18.967Z,38.30
2019-06-26T14:38:47.377Z,38.30
2019-06-26T14:41:15.800Z,38.30
2019-06-26T14:43:44.187Z,38.30
2019-06-26T14:46:12.608Z,38.40
2019-06-26T14:48:41.021Z,38.40
2019-06-26T14:51:09.425Z,38.30
2019-06-26T14:53:37.828Z,38.20
2019-06-26T14:56:06.227Z,38.20
2019-06-26T14:58:36.362Z,38.20
2019-06-26T15:01:04.914Z,38.30
2019-06-26T15:03:33.318Z,38.30
2019-06-26T15:06:15.392Z,38.20
2019-06-26T15:08:31.869Z,38.30
2019-06-26T15:11:00.265Z,38.20
2019-06-26T15:13:28.674Z,38.20
2019-06-26T15:15:57.083Z,38.20
2019-06-26T15:18:25.474Z,38.10
2019-06-26T15:20:53.879Z,38.20
2019-06-26T15:23:22.300Z,38.20
2019-06-26T15:25:50.740Z,38.10
2019-06-26T15:28:19.184Z,38.20
2019-06-26T15:30:47.583Z,38.20
2019-06-26T15:33:15.999Z,38.20
2019-06-26T15:35:44.469Z,38.30
2019-06-26T15:38:12.874Z,38.40
2019-06-26T15:40:41.301Z,38.30
2019-06-26T15:43:09.707Z,38.30
2019-06-26T15:45:38.111Z,38.30
2019-06-26T15:48:06.515Z,38.30
2019-06-26T15:50:34.916Z,38.30
2019-06-26T15:53:03.801Z,38.30
2019-06-26T15:55:32.292Z,38.10
2019-06-26T15:58:00.922Z,38.20
2019-06-26T16:00:29.333Z,38.20
2019-06-26T16:02:57.752Z,38.10
2019-06-26T16:05:26.189Z,38.10
2019-06-26T16:07:54.644Z,37.90
2019-06-26T16:10:23.040Z,38.00
2019-06-26T16:12:51.475Z,38.00
2019-06-26T16:15:19.957Z,37.90
2019-06-26T16:17:52.892Z,38.00
2019-06-26T16:20:21.335Z,38.30
2019-06-26T16:22:49.802Z,38.50
2019-06-26T16:25:18.293Z,38.90
2019-06-26T16:27:46.691Z,39.80
2019-06-26T16:30:15.630Z,40.30
2019-06-26T16:32:44.058Z,40.70
2019-06-26T16:35:12.616Z,41.00
2019-06-26T16:37:41.081Z,41.50
2019-06-26T16:40:09.491Z,42.10
2019-06-26T16:42:37.902Z,42.30
2019-06-26T16:45:07.531Z,42.70
2019-06-26T16:47:35.972Z,43.10
2019-06-26T16:50:05.954Z,42.70
2019-06-26T16:52:48.005Z,43.10
2019-06-26T16:55:06.131Z,43.10
2019-06-26T16:57:34.608Z,42.70
2019-06-26T17:00:09.354Z,42.80
2019-06-26T17:02:34.701Z,42.70
2019-06-26T17:05:03.162Z,42.90
2019-06-26T17:07:31.633Z,43.20
2019-06-26T17:10:00.035Z,42.90
2019-06-26T17:12:28.438Z,42.70
2019-06-26T17:14:56.832Z,42.40
2019-06-26T17:17:25.237Z,42.00
2019-06-26T17:19:53.635Z,42.10
2019-06-26T17:22:22.052Z,42.00
2019-06-26T17:24:50.466Z,42.10
2019-06-26T17:27:18.872Z,42.00
2019-06-26T17:29:47.283Z,41.90
2019-06-26T17:32:15.673Z,41.80
2019-06-26T17:34:44.088Z,41.60
2019-06-26T17:37:12.488Z,41.70
2019-06-26T17:39:40.904Z,41.80
2019-06-26T17:42:09.308Z,41.70
2019-06-26T17:44:37.720Z,41.50
2019-06-26T17:47:06.109Z,41.50
2019-06-26T17:49:34.519Z,41.30
2019-06-26T17:52:02.990Z,40.90
2019-06-26T17:54:31.465Z,40.90
2019-06-26T17:56:59.859Z,40.70
2019-06-26T17:59:28.267Z,40.40
2019-06-26T18:01:56.675Z,40.30
2019-06-26T18:04:25.062Z,40.20
2019-06-26T18:06:53.449Z,40.00
2019-06-26T18:09:21.902Z,39.70
2019-06-26T18:11:50.372Z,39.30
2019-06-26T18:14:18.788Z,39.10
2019-06-26T18:16:47.178Z,38.80
2019-06-26T18:19:15.603Z,38.70
2019-06-26T18:21:43.996Z,38.50
2019-06-26T18:24:12.401Z,38.30
2019-06-26T18:26:40.797Z,37.90
2019-06-26T18:29:09.215Z,37.10
2019-06-26T18:31:37.618Z,36.50
2019-06-26T18:34:06.038Z,35.60
2019-06-26T18:36:34.458Z,34.80
2019-06-26T18:39:02.876Z,34.40
2019-06-26T18:41:31.257Z,34.00
2019-06-26T18:43:59.676Z,33.50
2019-06-26T18:46:28.144Z,33.20
2019-06-26T18:48:56.562Z,32.90
2019-06-26T18:51:25.031Z,32.50
2019-06-26T18:53:54.112Z,32.30
2019-06-26T18:56:22.530Z,31.90
2019-06-26T18:58:50.965Z,31.50
2019-06-26T19:01:19.371Z,31.30
2019-06-26T19:03:47.767Z,31.00
2019-06-26T19:06:16.185Z,30.70
2019-06-26T19:08:44.600Z,30.40
2019-06-26T19:11:12.989Z,30.20
2019-06-26T19:13:41.407Z,30.00
2019-06-26T19:16:09.809Z,29.90
2019-06-26T19:18:38.210Z,29.80
2019-06-26T19:21:06.622Z,29.80
2019-06-26T19:23:35.111Z,29.80
2019-06-26T19:26:03.591Z,29.60
2019-06-26T19:28:32.346Z,29.50
2019-06-26T19:31:00.722Z,29.30
2019-06-26T19:33:29.130Z,29.10
2019-06-26T19:35:57.533Z,29.00
2019-06-26T19:38:25.959Z,28.80
2019-06-26T19:40:54.354Z,28.60
2019-06-26T19:43:22.766Z,28.40
2019-06-26T19:45:51.198Z,28.40
2019-06-26T19:48:19.595Z,28.40
2019-06-26T19:50:48.011Z,28.30
2019-06-26T19:53:16.417Z,28.20
2019-06-26T19:55:44.823Z,28.30
2019-06-26T19:58:13.230Z,28.20
2019-06-26T20:00:41.641Z,28.10
2019-06-26T20:03:10.038Z,28.10
2019-06-26T20:05:38.456Z,28.00
2019-06-26T20:08:06.867Z,27.90
2019-06-26T20:10:35.301Z,27.90
2019-06-26T20:13:03.772Z,27.50
2019-06-26T20:15:32.313Z,27.30
2019-06-26T20:18:03.983Z,27.10
2019-06-26T20:20:30.910Z,27.00
2019-06-26T20:22:59.298Z,27.00
2019-06-26T20:25:27.725Z,26.90
2019-06-26T20:27:57.103Z,26.80
2019-06-26T20:30:29.004Z,26.80
2019-06-26T20:32:57.416Z,26.70
2019-06-26T20:35:25.820Z,26.70
2019-06-26T20:37:54.221Z,26.60
2019-06-26T20:40:22.622Z,26.50
2019-06-26T20:42:51.017Z,26.40
2019-06-26T20:45:20.176Z,26.50
2019-06-26T20:47:48.593Z,26.50
2019-06-26T20:50:17.370Z,26.40
2019-06-26T20:52:45.793Z,26.20
2019-06-26T20:55:14.186Z,26.20
2019-06-26T20:57:42.613Z,26.20
2019-06-26T21:00:11.676Z,26.20
2019-06-26T21:02:40.139Z,26.20
2019-06-26T21:05:09.090Z,26.20
2019-06-26T21:07:37.509Z,26.20
2019-06-26T21:10:06.150Z,26.30
2019-06-26T21:12:34.643Z,26.30
2019-06-26T21:15:03.421Z,26.30
2019-06-26T21:17:31.816Z,26.30
2019-06-26T21:20:00.226Z,26.30
2019-06-26T21:22:28.627Z,26.20
2019-06-26T21:24:57.046Z,26.10
2019-06-26T21:27:25.459Z,26.00
2019-06-26T21:29:53.883Z,25.80
2019-06-26T21:32:22.276Z,25.70
2019-06-26T21:34:50.691Z,25.70
2019-06-26T21:37:19.115Z,25.70
2019-06-26T21:39:47.519Z,25.60
2019-06-26T21:42:16.347Z,25.50
2019-06-26T21:44:44.750Z,25.50
2019-06-26T21:47:13.152Z,25.50
2019-06-26T21:49:41.565Z,25.50
2019-06-26T21:52:09.970Z,25.40
2019-06-26T21:54:38.379Z,25.30
2019-06-26T21:57:09.303Z,25.20
2019-06-26T21:59:36.922Z,25.20
2019-06-26T22:02:05.419Z,25.20
2019-06-26T22:04:33.826Z,25.10
2019-06-26T22:07:02.236Z,25.10
2019-06-26T22:09:30.668Z,25.00
2019-06-26T22:12:00.853Z,25.00
2019-06-26T22:14:29.518Z,24.90
2019-06-26T22:16:57.937Z,24.90
2019-06-26T22:19:26.413Z,24.90
2019-06-26T22:21:54.826Z,24.90
2019-06-26T22:24:23.244Z,25.00
2019-06-26T22:26:51.659Z,24.90
2019-06-26T22:29:20.071Z,24.80
2019-06-26T22:31:48.478Z,24.80
2019-06-26T22:34:16.899Z,24.80
2019-06-26T22:36:51.747Z,24.80
2019-06-26T22:39:15.434Z,24.80
2019-06-26T22:41:43.865Z,24.80
2019-06-26T22:44:12.265Z,24.80
2019-06-26T22:46:40.749Z,24.80
2019-06-26T22:49:09.142Z,24.80
2019-06-26T22:51:37.566Z,24.60
2019-06-26T22:54:05.963Z,24.60
2019-06-26T22:56:34.372Z,24.60
2019-06-26T22:59:02.782Z,24.60
2019-06-26T23:01:31.193Z,24.60
2019-06-26T23:03:59.656Z,24.60
2019-06-26T23:06:28.085Z,24.70
2019-06-26T23:08:56.483Z,24.60
2019-06-26T23:11:24.948Z,24.60
2019-06-26T23:13:53.364Z,24.60
2019-06-26T23:16:21.775Z,24.60
2019-06-26T23:18:50.182Z,24.40
2019-06-26T23:21:18.581Z,24.30
2019-06-26T23:23:46.977Z,24.20
2019-06-26T23:26:24.117Z,24.10
2019-06-26T23:28:45.504Z,24.00
2019-06-26T23:31:13.909Z,23.90
2019-06-26T23:33:42.311Z,23.90
2019-06-26T23:36:10.728Z,23.90
2019-06-26T23:38:39.142Z,24.00
2019-06-26T23:41:07.624Z,24.00
2019-06-26T23:43:36.035Z,24.00
2019-06-26T23:46:04.452Z,24.00
2019-06-26T23:48:32.845Z,24.10
2019-06-26T23:51:01.330Z,24.10
2019-06-26T23:53:29.775Z,24.10
2019-06-26T23:55:58.203Z,24.10
2019-06-26T23:58:26.599Z,24.00
